Etusivu
METAR-TAF:

METAR-TAF

Lentoasemat :

Galveston, Texas, Yhdysvallat

Leveyspiiri: 29-16-13N, Pituuspiiri: 094-51-51W, korkeus merenpinnasta: 2 m

Tämänhetkinen sää

Tämä raportti tehtiin 36 minuuttia sitten, kello 01.52 UTC
tyyntä
Lämpötila 17°C
Kosteus 82%
Ilmanpaine 1015 hPa
Näkyvyys: 14.5 km
selkeää

METAR: KGLS 190152Z AUTO 00000KT 9SM CLR 17/14 A2996 RMK AO2 SLP144 T01670144

Aika: 20:28 (02:28 UTC)

Sääennuste

Tämä raportti tehtiin 3 tuntia ja 8 minuuttia sitten, kello 23.20 UTC
Ennuste voimassa 19. päivästä klo 00 UTC - 19. päivään klo 24 UTC
Tuuli 4 kn eri suunnista
Näkyvyys: 10 km
selkeää
From 19. päivästä klo 1800 UTC
Tuuli 6 kn etelästä
Näkyvyys: 10 km
selkeää

TAF: KGLS 182320Z 1900/1924 VRB04KT P6SM SKC FM191800 17006KT P6SM SKC

Säähavainnot ja -ennusteet yli 4000 lentoasemalta (METAR- ja TAF-raportit).

Käytössä olevat sääasemat on merkitty karttaan keltaisilla ja punaisilla pisteillä.

Aseta hiiri pisteen päälle nähdäksesi sääaseman nimen.

Klikkaa sitten nähdäksesi säähavainnot ja -ennusteet.

Kartan vaihtaminen: klikkaa mustalla rastilla varustettuja vihreitä pisteitä, niin voit zoomata sisään; viivalla varustettua vihreää pistettä, niin voit zoomata ulos tai vihreitä nuolia, niin pääset viereisille kartoille.


METAR-TAF: